Latest Weather Observations for Kanagulk

IDV60801

Issued at 3:05 pm EST Wednesday 3 September 2014 (issued every 30 minutes, with the page automatically refreshed every 10 minutes)

About weather observations | Map of weather stations | Latest weather observations for VIC | Other Formats
Station Details ID: 079097 Name: KANAGULK Lat: -37.12 Lon: 141.80 Height: 188.8 m
Data from the previous 72 hours. | See also: Recent months at Kanagulk
Date/Time
EST
Temp
°C
App
Temp
°C
Dew
Point
Rel
Hum
%
Delta-T
°C
Wind Press
QNH
hPa
Press
MSL
hPa
Rain
since 9 am
mm
Dir
 
Spd
km/h
Gust
km/h
Spd
kts
Gust
kts
03/03:00pm 12.7 9.5 3.1 52 4.3 W 9 17 5 9 1021.6 1021.7 0.0
03/02:30pm 11.5 8.8 2.8 55 3.8 SSW 6 11 3 6 1021.5 1021.6 0.0
03/02:00pm 11.5 8.8 3.5 58 3.6 SSW 7 13 4 7 1021.6 1021.7 0.0
03/01:30pm 12.0 9.8 3.3 55 3.9 ESE 4 9 2 5 1021.9 1022.0 0.0
03/01:00pm 12.8 9.5 4.3 56 3.9 SW 11 17 6 9 1022.3 1022.4 0.0
03/12:30pm 12.1 9.5 3.3 55 3.9 NW 6 11 3 6 1022.6 1022.8 0.0
03/12:00pm 11.3 8.6 3.8 60 3.3 SSW 7 13 4 7 1023.0 1023.2 0.0
03/11:30am 10.5 7.6 2.8 59 3.4 ESE 7 15 4 8 1023.2 1023.4 0.0
03/11:00am 10.7 8.1 3.3 60 3.2 ENE 6 13 3 7 1023.5 1023.7 0.0
03/10:30am 10.6 8.1 4.7 67 2.7 E 7 11 4 6 1023.6 1023.8 0.0
03/10:00am 9.5 8.7 8.1 91 0.7 SE 2 9 1 5 1024.0 1024.2 0.0
03/09:30am 8.1 7.6 8.0 99 0.0 CALM 0 6 0 3 1024.5 1024.6 0.0
03/09:00am 6.4 5.6 6.3 99 0.0 CALM 0 0 0 0 1024.6 1024.7 0.4
03/08:30am 4.9 3.7 4.8 99 0.0 CALM 0 0 0 0 1024.7 1024.8 0.4
03/08:00am 3.1 1.6 3.0 99 0.0 CALM 0 0 0 0 1024.9 1025.0 0.2
03/07:30am 1.3 -0.5 1.2 99 0.0 CALM 0 0 0 0 1025.0 1025.1 0.2
03/07:00am 0.1 -1.9 0.0 99 0.0 CALM 0 0 0 0 1024.7 1024.8 0.2
03/06:30am 0.8 -1.1 0.7 99 0.0 CALM 0 0 0 0 1024.6 1024.7 0.2
03/06:00am 1.1 -0.7 1.0 99 0.0 CALM 0 0 0 0 1024.4 1024.5 0.2
03/05:30am 2.0 0.3 1.9 99 0.0 CALM 0 0 0 0 1024.1 1024.3 0.2
03/05:00am 2.6 1.0 2.5 99 0.0 CALM 0 0 0 0 1023.8 1024.0 0.2
03/04:30am 3.4 0.8 3.3 99 0.0 SSW 6 7 3 4 1023.8 1024.0 0.2
03/04:00am 3.9 1.2 3.8 99 0.0 SSW 7 9 4 5 1023.9 1024.1 0.2
03/03:30am 4.3 1.7 4.2 99 0.0 SW 7 9 4 5 1024.1 1024.3 0.2
03/03:00am 4.1 1.1 4.0 99 0.0 SW 9 11 5 6 1024.4 1024.5 0.2
03/02:30am 3.8 0.7 3.7 99 0.0 SSW 9 11 5 6 1024.6 1024.7 0.2
03/02:00am 4.1 1.5 4.0 99 0.0 SSW 7 9 4 5 1025.0 1025.1 0.2
03/01:30am 3.9 1.2 3.8 99 0.0 WSW 7 7 4 4 1025.2 1025.3 0.2
03/01:00am 4.7 2.2 4.6 99 0.0 SSW 7 9 4 5 1025.3 1025.4 0.2
03/12:30am 4.8 1.9 4.7 99 0.0 SW 9 9 5 5 1025.4 1025.5 0.2
03/12:00am 5.3 2.9 5.2 99 0.0 SSW 7 11 4 6 1025.2 1025.3 0.2
 
Date/Time
EST
Temp
°C
App
Temp
°C
Dew
Point
Rel
Hum
%
Delta-T
°C
Wind Press
QNH
hPa
Press
MSL
hPa
Rain
since 9 am
mm
Dir
 
Spd
km/h
Gust
km/h
Spd
kts
Gust
kts
02/11:30pm 5.1 2.3 5.0 99 0.0 SW 9 13 5 7 1025.3 1025.4 0.2
02/11:00pm 4.9 2.0 4.6 98 0.1 SW 9 11 5 6 1025.4 1025.5 0.2
02/10:30pm 5.2 2.7 4.8 97 0.2 SW 7 11 4 6 1025.4 1025.5 0.2
02/10:00pm 5.6 3.1 4.9 95 0.3 SSW 7 11 4 6 1025.4 1025.5 0.2
02/09:30pm 5.9 3.0 4.9 93 0.4 SSW 9 15 5 8 1025.3 1025.4 0.2
02/09:00pm 6.2 3.3 4.8 91 0.6 SSW 9 13 5 7 1025.1 1025.2 0.2
02/08:30pm 6.4 3.5 4.7 89 0.7 S 9 11 5 6 1024.9 1025.0 0.2
02/08:00pm 7.0 4.2 5.0 87 0.9 SSW 9 11 5 6 1024.9 1025.0 0.2
02/07:30pm 7.3 4.8 4.6 83 1.2 SSW 7 11 4 6 1024.5 1024.6 0.2
02/07:00pm 7.9 5.0 4.5 79 1.5 SSW 9 13 5 7 1024.4 1024.5 0.2
02/06:30pm 8.6 5.2 4.2 74 1.9 SSW 11 15 6 8 1023.9 1024.1 0.2
02/06:00pm 9.5 6.6 4.5 71 2.2 S 9 15 5 8 1023.6 1023.8 0.2
02/05:30pm 10.5 6.8 4.6 67 2.7 SSW 13 19 7 10 1023.2 1023.4 0.2
02/05:00pm 11.2 8.1 5.7 69 2.6 SW 11 19 6 10 1022.9 1023.1 0.2
02/04:30pm 9.4 6.8 5.9 79 1.6 SW 9 11 5 6 1022.7 1022.9 0.2
02/04:12pm 10.2 3.5 3.9 65 2.8 SSW 28 44 15 24 1022.7 1022.9 0.0
02/04:00pm 12.9 8.5 4.8 58 3.7 SSW 17 22 9 12 1022.3 1022.4 0.0
02/03:30pm 11.8 6.3 3.8 58 3.6 SW 22 30 12 16 1022.0 1022.1 0.0
02/03:00pm 13.5 8.3 3.3 50 4.6 S 20 32 11 17 1021.8 1021.9 0.0
02/02:30pm 12.9 6.8 2.7 50 4.5 S 24 33 13 18 1021.8 1021.9 0.0
02/02:00pm 13.5 6.7 3.3 50 4.6 S 28 35 15 19 1021.7 1021.8 0.0
02/01:30pm 12.4 6.7 2.6 51 4.3 S 22 33 12 18 1021.8 1021.9 0.0
02/01:00pm 13.0 7.4 3.4 52 4.3 S 22 33 12 18 1022.0 1022.1 0.0
02/12:30pm 12.4 6.9 4.1 57 3.8 S 22 33 12 18 1022.2 1022.3 0.0
02/12:00pm 11.7 5.4 4.0 59 3.5 S 26 35 14 19 1022.2 1022.3 0.0
02/11:30am 12.3 6.5 4.3 58 3.7 S 24 39 13 21 1022.2 1022.3 0.0
02/11:00am 12.0 5.5 4.5 60 3.4 S 28 41 15 22 1022.2 1022.3 0.0
02/10:30am 11.6 5.9 4.8 63 3.1 S 24 35 13 19 1022.1 1022.2 0.0
02/10:00am 11.0 5.2 4.5 64 2.9 S 24 35 13 19 1021.9 1022.0 0.0
02/09:30am 10.3 4.8 4.2 66 2.7 S 22 32 12 17 1021.7 1021.8 0.0
02/09:00am 9.3 4.6 5.1 75 1.9 SSW 19 30 10 16 1021.5 1021.6 3.8
02/08:30am 8.3 4.3 6.8 90 0.7 SSW 17 24 9 13 1021.0 1021.1 3.8
02/08:00am 6.7 3.4 6.6 99 0.0 SSW 13 20 7 11 1020.5 1020.6 3.8
02/07:30am 5.4 1.9 5.3 99 0.0 SW 13 19 7 10 1020.1 1020.2 3.8
02/07:00am 5.0 1.4 4.9 99 0.0 SW 13 17 7 9 1019.6 1019.7 3.8
02/06:30am 4.8 1.1 4.7 99 0.0 SW 13 17 7 9 1019.0 1019.1 3.8
02/06:00am 4.9 0.9 4.8 99 0.0 SW 15 20 8 11 1018.6 1018.8 3.8
02/05:30am 4.3 0.9 4.2 99 0.0 SW 11 13 6 7 1018.1 1018.3 3.8
02/05:00am 3.9 0.5 3.8 99 0.0 SW 11 17 6 9 1017.6 1017.7 3.8
02/04:30am 3.8 0.7 3.7 99 0.0 SW 9 13 5 7 1017.3 1017.4 3.8
02/04:00am 3.3 0.5 3.2 99 0.0 WSW 7 11 4 6 1017.0 1017.1 3.8
02/03:30am 3.7 1.0 3.6 99 0.0 WSW 7 9 4 5 1016.9 1017.0 3.8
02/03:00am 4.3 1.3 4.2 99 0.0 SW 9 13 5 7 1016.6 1016.7 3.8
02/02:30am 3.8 0.7 3.7 99 0.0 WSW 9 11 5 6 1016.4 1016.5 3.8
02/02:00am 4.0 1.3 3.9 99 0.0 WSW 7 9 4 5 1016.3 1016.4 3.8
02/01:30am 4.2 1.6 4.1 99 0.0 WSW 7 9 4 5 1016.1 1016.2 3.8
02/01:00am 4.5 1.9 4.4 99 0.0 W 7 11 4 6 1015.9 1016.0 3.8
02/12:30am 4.6 2.2 4.5 99 0.0 WSW 6 7 3 4 1015.7 1015.8 3.8
02/12:00am 4.9 2.4 4.8 99 0.0 WSW 7 9 4 5 1015.6 1015.7 3.8
 
Date/Time
EST
Temp
°C
App
Temp
°C
Dew
Point
Rel
Hum
%
Delta-T
°C
Wind Press
QNH
hPa
Press
MSL
hPa
Rain
since 9 am
mm
Dir
 
Spd
km/h
Gust
km/h
Spd
kts
Gust
kts
01/11:30pm 5.3 3.1 5.2 99 0.0 WSW 6 9 3 5 1015.5 1015.6 3.8
01/11:00pm 5.3 2.9 5.2 99 0.0 WSW 7 11 4 6 1015.4 1015.5 3.8
01/10:30pm 5.7 3.5 5.3 97 0.2 WSW 6 7 3 4 1015.2 1015.3 3.8
01/10:00pm 6.3 3.6 5.7 96 0.3 SW 9 13 5 7 1014.9 1015.0 3.8
01/09:30pm 6.7 3.7 6.0 95 0.3 SW 11 15 6 8 1014.6 1014.7 3.8
01/09:00pm 6.9 4.6 5.8 93 0.5 WSW 7 13 4 7 1014.4 1014.5 3.8
01/08:30pm 7.5 5.3 6.1 91 0.6 SW 7 11 4 6 1014.3 1014.4 3.8
01/08:00pm 8.5 5.6 6.6 88 0.9 SSW 11 17 6 9 1014.0 1014.1 3.8
01/07:30pm 9.3 5.5 7.6 89 0.8 SSW 17 24 9 13 1013.6 1013.7 3.8
01/07:00pm 9.0 6.3 7.3 89 0.8 SW 11 15 6 8 1013.2 1013.2 3.8
01/06:30pm 9.4 6.9 6.7 83 1.3 WSW 9 19 5 10 1012.6 1012.7 3.8
01/06:00pm 10.3 6.3 6.6 78 1.8 SW 17 24 9 13 1012.2 1012.3 3.8
01/05:30pm 10.7 7.0 6.3 74 2.1 SSW 15 22 8 12 1011.6 1011.7 3.8
01/05:00pm 11.6 7.9 6.5 71 2.4 SW 15 22 8 12 1011.2 1011.3 3.8
01/04:30pm 12.7 8.2 6.1 64 3.2 SW 19 24 10 13 1010.9 1011.0 3.8
01/04:00pm 13.1 9.9 6.7 65 3.1 SW 13 28 7 15 1010.6 1010.7 3.8
01/03:30pm 12.7 10.1 7.6 71 2.5 SSW 11 17 6 9 1010.3 1010.4 3.8
01/03:00pm 11.8 8.4 7.5 75 2.1 S 15 22 8 12 1010.2 1010.3 3.8
01/02:30pm 10.8 7.3 8.6 86 1.1 SSE 17 26 9 14 1010.1 1010.2 3.8
01/02:00pm 9.7 6.7 9.2 97 0.3 SSE 15 19 8 10 1010.3 1010.4 3.8
01/01:30pm 8.4 3.1 6.9 90 0.7 SW 24 46 13 25 1010.9 1011.0 2.2
01/01:27pm 8.5 2.4 6.6 88 0.9 SW 28 46 15 25 1011.0 1011.1 2.2
01/01:21pm 10.6 4.8 8.0 84 1.3 SW 28 41 15 22 1010.6 1010.7 0.8
01/01:00pm 12.6 10.5 9.8 83 1.4 NW 11 15 6 8 1009.9 1010.0 0.4
01/12:30pm 12.3 11.1 10.4 88 1.0 NW 7 11 4 6 1010.0 1010.1 0.4
01/12:00pm 12.1 10.5 10.3 89 0.9 W 9 15 5 8 1010.1 1010.2 0.4
01/11:30am 11.7 9.4 10.3 91 0.7 WSW 13 17 7 9 1010.2 1010.3 0.4
01/11:00am 12.2 10.0 10.8 91 0.7 W 13 20 7 11 1010.3 1010.4 0.0
01/10:30am 11.9 9.9 11.6 98 0.2 W 13 20 7 11 1010.3 1010.4 0.0
01/10:00am 11.8 10.2 11.6 99 0.1 WNW 11 22 6 12 1010.1 1010.2 0.0
01/09:30am 11.7 10.5 11.5 99 0.1 WNW 9 17 5 9 1010.0 1010.2 0.0
01/09:00am 11.2 9.8 11.0 99 0.1 WNW 9 15 5 8 1009.8 1010.0 3.8
01/08:30am 10.8 8.5 10.6 99 0.1 NW 13 17 7 9 1009.8 1010.0 3.8
01/08:00am 10.6 8.3 10.4 99 0.1 NW 13 19 7 10 1009.4 1009.6 3.8
01/07:30am 10.4 8.8 10.2 99 0.1 NNW 9 15 5 8 1009.2 1009.4 3.8
01/07:00am 10.2 8.9 10.0 99 0.1 NW 7 11 4 6 1009.0 1009.2 3.8
01/06:30am 10.1 8.4 9.9 99 0.1 NW 9 15 5 8 1008.9 1009.1 3.8
01/06:00am 10.5 8.2 10.3 99 0.1 NW 13 17 7 9 1008.9 1009.1 3.2
01/05:30am 10.8 9.3 10.6 99 0.1 NW 9 15 5 8 1008.8 1009.0 2.2
01/05:00am 11.1 9.6 10.5 96 0.3 NW 9 13 5 7 1008.7 1008.9 1.2
01/04:30am 11.5 10.2 9.9 90 0.8 NW 7 13 4 7 1008.9 1009.1 0.2
01/04:00am 12.1 9.9 9.3 83 1.4 W 11 17 6 9 1008.6 1008.8 0.0
01/03:30am 12.5 10.7 8.0 74 2.2 W 7 11 4 6 1008.4 1008.6 0.0
01/03:00am 12.9 10.0 6.7 66 3.0 WSW 11 19 6 10 1008.9 1009.1 0.0
01/02:30am 13.5 10.9 4.1 53 4.3 W 7 11 4 6 1008.7 1008.9 0.0
01/02:00am 14.2 11.0 2.8 46 5.1 WNW 9 15 5 8 1008.7 1008.9 0.0
01/01:30am 14.3 11.2 1.6 42 5.6 WNW 7 17 4 9 1008.7 1008.9 0.0
01/01:00am 14.6 11.1 1.5 41 5.8 NW 9 20 5 11 1008.2 1008.4 0.0
01/12:30am 14.7 11.6 1.3 40 5.9 WNW 7 13 4 7 1008.2 1008.4 0.0
01/12:00am 15.3 11.3 0.7 37 6.4 N 11 19 6 10 1008.3 1008.5 0.0
 
Date/Time
EST
Temp
°C
App
Temp
°C
Dew
Point
Rel
Hum
%
Delta-T
°C
Wind Press
QNH
hPa
Press
MSL
hPa
Rain
since 9 am
mm
Dir
 
Spd
km/h
Gust
km/h
Spd
kts
Gust
kts
31/11:30pm 15.9 10.4 0.5 35 6.7 N 19 26 10 14 1008.5 1008.7 0.0
31/11:00pm 14.9 10.6 1.1 39 6.0 N 13 19 7 10 1008.9 1009.1 0.0
31/10:30pm 15.9 11.1 0.5 35 6.7 N 15 20 8 11 1009.4 1009.6 0.0
31/10:00pm 15.9 11.2 0.9 36 6.6 N 15 20 8 11 1009.7 1009.9 0.0
31/09:30pm 15.5 11.7 1.6 39 6.2 N 11 17 6 9 1010.2 1010.4 0.0
31/09:00pm 15.0 11.3 2.2 42 5.7 N 11 15 6 8 1010.3 1010.5 0.0
31/08:30pm 14.8 11.8 2.0 42 5.7 N 7 11 4 6 1010.5 1010.7 0.0
31/08:00pm 16.0 12.5 1.3 37 6.5 NNW 9 11 5 6 1010.8 1011.0 0.0
31/07:30pm 17.5 11.9 1.1 33 7.3 N 20 30 11 16 1010.0 1010.2 0.0
31/07:00pm 17.2 11.9 1.6 35 7.0 NNE 19 22 10 12 1009.8 1010.0 0.0
31/06:30pm 17.9 12.9 1.4 33 7.4 NNE 17 20 9 11 1010.3 1010.5 0.0
31/06:00pm 18.1 13.2 2.0 34 7.4 N 17 20 9 11 1010.6 1010.8 0.0
31/05:30pm 18.4 14.8 2.7 35 7.3 N 11 15 6 8 1011.1 1011.3 0.0
31/05:00pm 19.5 15.9 2.8 33 7.9 NNW 11 19 6 10 1011.5 1011.7 0.0
31/04:30pm 20.1 15.2 2.0 30 8.4 NW 17 28 9 15 1011.6 1011.8 0.0
31/04:00pm 20.5 15.0 0.9 27 8.9 NNW 19 32 10 17 1011.6 1011.8 0.0
31/03:30pm 21.1 16.1 1.4 27 9.1 NW 17 26 9 14 1011.7 1011.9 0.0

Other Formats:

Comma delimited format used in spreadsheet applications
http://www.bom.gov.au/fwo/IDV60801/IDV60801.95827.axf

JavaScript Object Notation format (JSON) in row-major order
http://www.bom.gov.au/fwo/IDV60801/IDV60801.95827.json